Nearby METAR Reports

 

K1V4 - St. Johnsbury, Vermont, USA
Distance from station: NNW 15mi, 24km
Updated: 06/13/2021 7:54pm

 
Temperature: 72°F , 22°C
Dew Point: 50°F , 10°C
Humidity: 47%
Barometer: 29.80 inHg , 1009.1 hPa
2021/06/13 23:54 K1V4 132354Z AUTO 22/10 A2980 RMK AO1 SLP084 T02220100 10283 20222 56005
KHIE - Whitefield, New Hampshire, USA
Distance from station: ENE 21mi, 34km
Updated: 06/13/2021 7:52pm
Clear
Clear
 Wind from calm
Wind: Calm
Temperature: 73°F , 23°C
Dew Point: 48°F , 9°C
Humidity: 41%
Barometer: 29.82 inHg , 1009.8 hPa
Clouds: Clear
Visibility: 10 miles , 16 km
2021/06/13 23:52 KHIE 132352Z AUTO 00000KT 10SM CLR 23/09 A2982 RMK AO2 SLP097 T02280089 10272 20228 58003 $
KCDA - Lyndonville, Vermont, USA
Distance from station: NNW 25mi, 40km
Updated: 06/13/2021 8:15pm
Overcast
Overcast
 Wind from calm
Wind: Calm
Temperature: 73°F , 23°C
Dew Point: 41°F , 5°C
Humidity: 31%
Barometer: 29.85 inHg , 1010.8 hPa
Clouds: Overcast
Visibility: 10 miles , 16 km
Cloud details: Overcast 11000 ft
2021/06/14 00:15 KCDA 140015Z AUTO 00000KT 10SM OVC110 23/05 A2985 RMK AO2 T02250051
 
K1P1 - Plymouth, New Hampshire, USA
Distance from station: SSE 31mi, 49km
Updated: 06/13/2021 8:15pm
Clear
Clear
 Wind from calm
Wind: Calm
Temperature: 73°F , 23°C
Dew Point: 54°F , 12°C
Humidity: 50%
Barometer: 29.82 inHg , 1009.8 hPa
Clouds: Clear
Visibility: 10 miles , 16 km
2021/06/14 00:15 K1P1 140015Z AUTO 00000KT 10SM CLR 23/12 A2982 RMK AO2 T02260116
KMWN - Mount Washington, New Hampshire, USA
Distance from station: E 31mi, 49km
Updated: 06/13/2021 7:50pm
Mostly cloudy
Mostly cloudy
 Wind from W
Wind: W 5 mph , 7 km/h
Temperature: 52°F , 11°C
Dew Point: 34°F , 1°C
Humidity: 50%
Clouds: Mostly cloudy
Visibility: 80 miles , 128 km
Cloud details: Few Clouds 2000 ft
Mostly cloudy 4000 ft
Mostly cloudy 7000 ft
Mostly cloudy 14000 ft
Mostly cloudy 17000 ft
2021/06/13 23:50 KMWN 132350Z 26004KT 80SM FEW020 BKN040 BKN070 BKN140 BKN170 11/01 RMK CCSL DSNT NW 10133 20112
KMPV - Montpelier/Barre, Vermont, USA
Distance from station: W 32mi, 52km
Updated: 06/13/2021 7:51pm
Mostly cloudy
Mostly cloudy
 Wind from S
Wind: S 3 mph , 6 km/h
Temperature: 70°F , 21°C
Dew Point: 54°F , 12°C
Humidity: 57%
Barometer: 29.87 inHg , 1011.5 hPa
Clouds: Mostly cloudy
Visibility: 10 miles , 16 km
Cloud details: Mostly cloudy 9500 ft
2021/06/13 23:51 KMPV 132351Z AUTO 18003KT 10SM BKN095 21/12 A2987 RMK AO2 SLP111 T02110117 10272 20211 56006
 
KMVL - Morrisville, Vermont, USA
Distance from station: WNW 41mi, 66km
Updated: 06/13/2021 7:54pm
Mostly cloudy
Mostly cloudy
 Wind from calm
Wind: Calm
Temperature: 70°F , 21°C
Dew Point: 55°F , 13°C
Humidity: 60%
Barometer: 29.82 inHg , 1009.8 hPa
Clouds: Mostly cloudy
Visibility: 10 miles , 16 km
Cloud details: Mostly cloudy 11000 ft
2021/06/13 23:54 KMVL 132354Z AUTO 00000KT 10SM BKN110 21/13 A2982 RMK AO2 SLP096 T02060133 10283 20206 56006
KBML - Berlin, New Hampshire, USA
Distance from station: NE 44mi, 71km
Updated: 06/13/2021 7:52pm
Clear
Clear
 Wind from E
Wind: E 3 mph , 6 km/h
Temperature: 70°F , 21°C
Dew Point: 50°F , 10°C
Humidity: 50%
Barometer: 29.84 inHg , 1010.5 hPa
Clouds: Clear
Visibility: 10 miles , 16 km
2021/06/13 23:52 KBML 132352Z AUTO 09003KT 10SM CLR 21/10 A2984 RMK AO2 SLP104 T02060100 10278 20206 55001
KLEB - Lebanon, New Hampshire, USA
Distance from station: SSW 44mi, 71km
Updated: 06/13/2021 7:53pm
Clear
Clear
 Wind from calm
Wind: Calm
Temperature: 72°F , 22°C
Dew Point: 54°F , 12°C
Humidity: 53%
Barometer: 29.81 inHg , 1009.5 hPa
Clouds: Clear
Visibility: 10 miles , 16 km
2021/06/13 23:53 KLEB 132353Z 00000KT 10SM CLR 22/12 A2981 RMK AO2 SLP087 T02170122 10294 20217 56005
 
KEFK - Newport State, Vermont, USA
Distance from station: NNW 49mi, 79km
Updated: 06/13/2021 8:15pm
Overcast
Overcast
 Wind from calm
Wind: Calm
Temperature: 73°F , 23°C
Dew Point: 41°F , 5°C
Humidity: 31%
Barometer: 29.84 inHg , 1010.5 hPa
Clouds: Overcast
Visibility: 10 miles , 16 km
Cloud details: Overcast 11000 ft
2021/06/14 00:15 KEFK 140015Z AUTO 00000KT 10SM OVC110 23/05 A2984 RMK AO2 T02260054
KIZG - Fryeburg, Maine, USA
Distance from station: ESE 50mi, 81km
Updated: 06/13/2021 7:54pm
Partly cloudy
Partly cloudy
 Wind from SSE
Wind: SSE 3 mph , 6 km/h
Temperature: 75°F , 24°C
Dew Point: 43°F , 6°C
Humidity: 31%
Barometer: 29.82 inHg , 1009.8 hPa
Clouds: Partly cloudy
Visibility: 10 miles , 16 km
Cloud details: Partly cloudy 10000 ft
2021/06/13 23:54 KIZG 132354Z AUTO 16003KT 10SM SCT100 24/06 A2982 RMK AO2 SLP096 T02440061 10306 20244 55001
KLCI - Laconia Muni, New Hampshire, USA
Distance from station: SSE 51mi, 82km
Updated: 06/13/2021 7:56pm
Clear
Clear
 Wind from calm
Wind: Calm
Temperature: 73°F , 23°C
Dew Point: 54°F , 12°C
Humidity: 50%
Barometer: 29.82 inHg , 1009.8 hPa
Clouds: Clear
Visibility: 10 miles , 16 km
2021/06/13 23:56 KLCI 132356Z AUTO 00000KT 10SM CLR 23/12 A2982 RMK AO2 SLP096 6//// T02280117 10278 20222 56004 PNO $
 
K6B0 - Middlebury, Vermont, USA
Distance from station: WSW 61mi, 98km
Updated: 06/13/2021 8:15pm
Partly cloudy
Partly cloudy
 Wind from calm
Wind: Calm
Temperature: 72°F , 22°C
Dew Point: 52°F , 11°C
Humidity: 50%
Barometer: 29.82 inHg , 1009.8 hPa
Clouds: Partly cloudy
Visibility: 10 miles , 16 km
Cloud details: Partly cloudy 12000 ft
2021/06/14 00:15 K6B0 140015Z AUTO 00000KT 10SM SCT120 22/11 A2982 RMK AO2 T02150113
KBTV - Burlington, Vermont, USA
Distance from station: WNW 63mi, 102km
Updated: 06/13/2021 7:54pm
Mostly cloudy
Mostly cloudy
 Wind from S
Wind: S 6 mph , 9 km/h
Temperature: 79°F , 26°C
Dew Point: 46°F , 8°C
Humidity: 32%
Barometer: 29.79 inHg , 1008.8 hPa
Clouds: Mostly cloudy
Visibility: 10 miles , 16 km
Cloud details: Partly cloudy 14000 ft
Mostly cloudy 20000 ft
2021/06/13 23:54 KBTV 132354Z 18005KT 10SM SCT140 BKN200 26/08 A2979 RMK AO2 SLP085 T02610083 10300 20261 56007 $
KVSF - Springfield, Vermont, USA
Distance from station: SSW 67mi, 107km
Updated: 06/13/2021 7:54pm
Clear
Clear
 Wind from calm
Wind: Calm
Temperature: 73°F , 23°C
Dew Point: 57°F , 14°C
Humidity: 57%
Barometer: 29.82 inHg , 1009.8 hPa
Clouds: Clear
Visibility: 10 miles , 16 km
2021/06/13 23:54 KVSF 132354Z AUTO 00000KT 10SM CLR 23/14 A2982 RMK AO2 SLP098 T02330139 10278 20233 56003 $
 
KRUT - Rutland State, Vermont, USA
Distance from station: SW 70mi, 113km
Updated: 06/13/2021 7:56pm
Clear
Clear
 Wind from calm
Wind: Calm
Temperature: 72°F , 22°C
Dew Point: 55°F , 13°C
Humidity: 57%
Barometer: 29.83 inHg , 1010.2 hPa
Clouds: Clear
Visibility: 10 miles , 16 km
2021/06/13 23:56 KRUT 132356Z AUTO 00000KT 10SM CLR 22/13 A2983 RMK AO2 SLP094 6//// T02220133 10267 20217 55006 PNO $
CWFQ - Frelighsburg, Quebec, Canada
Distance from station: NW 72mi, 116km
Updated: 06/13/2021 8:00pm

 Wind from S
Wind: S 2 mph , 4 km/h
Temperature: 72°F , 22°C
Dew Point: 45°F , 7°C
Humidity: 38%
2021/06/14 00:00 CWFQ 140000Z AUTO 18002KT 22/07 RMK AO1 SLP088 T02240071 57007
KCON - Concord, New Hampshire, USA
Distance from station: SSE 73mi, 117km
Updated: 06/13/2021 7:51pm
Few Clouds
Few Clouds
 Wind from SW
Wind: SW 10 mph , 17 km/h
Temperature: 77°F , 25°C
Dew Point: 55°F , 13°C
Humidity: 47%
Barometer: 29.82 inHg , 1009.8 hPa
Clouds: Few Clouds
Visibility: 10 miles , 16 km
Cloud details: Few Clouds 8000 ft
2021/06/13 23:51 KCON 132351Z AUTO 23009KT 10SM FEW080 25/13 A2982 RMK AO2 SLP098 T02500128 10289 20250 55001
 
CWTT - Lac Memphremagog, Quebec, Canada
Distance from station: N 74mi, 119km
Updated: 06/13/2021 8:00pm

 Wind from SSE
Wind: SSE 2 mph , 4 km/h
Temperature: 75°F , 24°C
Dew Point: 43°F , 6°C
Humidity: 31%
2021/06/14 00:00 CWTT 140000Z AUTO 15002KT 24/06 RMK AO1 T02390064
KFSO - Highgate, Vermont, USA
Distance from station: NW 77mi, 123km
Updated: 06/13/2021 8:15pm
Partly cloudy
Partly cloudy
 Wind from calm
Wind: Calm
Temperature: 75°F , 24°C
Dew Point: 50°F , 10°C
Humidity: 41%
Barometer: 29.78 inHg , 1008.5 hPa
Clouds: Partly cloudy
Visibility: 10 miles , 16 km
Cloud details: Partly cloudy 11000 ft
2021/06/14 00:15 KFSO 140015Z AUTO 00000KT 10SM SCT110 24/10 A2978 RMK AO2 T02380098